createdAt,value
2022-08-31T00:01:20.842Z,64.74
2022-08-31T00:03:59.982Z,65.26
2022-08-31T00:06:28.672Z,65.45
2022-08-31T00:08:57.172Z,65.29
2022-08-31T00:11:30.813Z,64.94
2022-08-31T00:14:01.152Z,64.82
2022-08-31T00:16:32.042Z,64.97
2022-08-31T00:19:02.777Z,65.17
2022-08-31T00:21:31.752Z,65.02
2022-08-31T00:24:00.542Z,65.60
2022-08-31T00:26:29.082Z,65.59
2022-08-31T00:28:57.683Z,65.82
2022-08-31T00:31:26.377Z,65.75
2022-08-31T00:33:55.632Z,66.18
2022-08-31T00:36:28.041Z,66.48
2022-08-31T00:38:58.149Z,66.63
2022-08-31T00:41:29.101Z,66.51
2022-08-31T00:43:59.581Z,67.05
2022-08-31T00:46:30.707Z,67.30
2022-08-31T00:49:05.685Z,67.58
2022-08-31T00:51:39.353Z,67.91
2022-08-31T00:54:11.157Z,68.16
2022-08-31T00:56:40.852Z,68.03
2022-08-31T00:59:09.231Z,67.84
2022-08-31T01:01:37.762Z,68.12
2022-08-31T01:04:07.342Z,68.47
2022-08-31T01:06:37.734Z,68.61
2022-08-31T01:09:08.427Z,68.80
2022-08-31T01:11:38.701Z,69.32
2022-08-31T01:14:08.801Z,69.64
2022-08-31T01:16:42.066Z,69.91
2022-08-31T01:19:18.603Z,69.70
2022-08-31T01:21:58.351Z,69.83
2022-08-31T01:24:30.299Z,70.04
2022-08-31T01:27:03.882Z,70.41
2022-08-31T01:29:33.682Z,70.20
2022-08-31T01:32:02.596Z,70.31
2022-08-31T01:34:31.212Z,70.72
2022-08-31T01:37:00.341Z,70.48
2022-08-31T01:39:30.511Z,70.22
2022-08-31T01:42:00.573Z,70.00
2022-08-31T01:44:30.942Z,70.36
2022-08-31T01:46:59.604Z,70.19
2022-08-31T01:49:29.652Z,70.09
2022-08-31T01:51:59.204Z,70.19
2022-08-31T01:54:29.362Z,70.00
2022-08-31T01:57:01.587Z,70.51
2022-08-31T01:59:45.932Z,70.86
2022-08-31T02:02:25.483Z,70.82
2022-08-31T02:04:54.241Z,71.22
2022-08-31T02:07:22.762Z,71.51
2022-08-31T02:09:52.842Z,71.62
2022-08-31T02:12:21.516Z,71.74
2022-08-31T02:14:50.135Z,71.68
2022-08-31T02:17:18.870Z,72.02
2022-08-31T02:19:47.482Z,72.20
2022-08-31T02:22:16.352Z,71.85
2022-08-31T02:24:45.372Z,72.24
2022-08-31T02:27:15.421Z,71.97
2022-08-31T02:29:44.231Z,72.17
2022-08-31T02:32:20.058Z,72.34
2022-08-31T02:34:49.745Z,72.69
2022-08-31T02:37:18.496Z,72.02
2022-08-31T02:39:50.257Z,71.68
2022-08-31T02:42:21.787Z,71.63
2022-08-31T02:44:51.856Z,71.27
2022-08-31T02:47:20.916Z,71.33
2022-08-31T02:50:02.775Z,71.27
2022-08-31T02:52:32.157Z,71.19
2022-08-31T02:55:00.711Z,71.32
2022-08-31T02:57:32.476Z,71.19
2022-08-31T03:00:01.084Z,71.59
2022-08-31T03:02:31.703Z,71.54
2022-08-31T03:05:02.671Z,71.66
2022-08-31T03:07:33.980Z,71.73
2022-08-31T03:10:02.846Z,72.17
2022-08-31T03:12:32.931Z,72.16
2022-08-31T03:15:01.535Z,72.22
2022-08-31T03:17:30.217Z,72.32
2022-08-31T03:20:01.187Z,72.34
2022-08-31T03:22:29.856Z,72.32
2022-08-31T03:24:59.475Z,72.92
2022-08-31T03:27:29.533Z,72.95
2022-08-31T03:30:00.415Z,72.99
2022-08-31T03:32:33.377Z,73.13
2022-08-31T03:35:03.321Z,73.02
2022-08-31T03:37:32.187Z,73.04
2022-08-31T03:40:02.672Z,72.92
2022-08-31T03:42:33.311Z,72.67
2022-08-31T03:45:04.077Z,72.84
2022-08-31T03:47:36.141Z,72.43
2022-08-31T03:50:13.550Z,72.38
2022-08-31T03:53:04.371Z,72.13
2022-08-31T03:55:33.824Z,72.39
2022-08-31T03:58:02.567Z,72.59
2022-08-31T04:00:34.326Z,72.53
2022-08-31T04:03:07.629Z,72.65
2022-08-31T04:05:46.942Z,72.62
2022-08-31T04:08:17.406Z,72.55
2022-08-31T04:10:53.803Z,72.33
2022-08-31T04:13:33.369Z,72.17
2022-08-31T04:16:15.550Z,72.15
2022-08-31T04:18:54.548Z,72.33
2022-08-31T04:21:27.291Z,72.19
2022-08-31T04:23:56.697Z,72.21
2022-08-31T04:26:28.122Z,72.39
2022-08-31T04:28:57.238Z,72.05
2022-08-31T04:31:28.206Z,72.13
2022-08-31T04:33:58.646Z,72.26
2022-08-31T04:36:29.731Z,72.05
2022-08-31T04:39:00.851Z,72.06
2022-08-31T04:41:32.151Z,72.39
2022-08-31T04:44:03.674Z,72.16
2022-08-31T04:46:35.192Z,71.78
2022-08-31T04:49:04.543Z,72.24
2022-08-31T04:51:35.681Z,72.28
2022-08-31T04:54:06.142Z,72.43
2022-08-31T04:56:37.081Z,72.65
2022-08-31T04:59:09.152Z,72.46
2022-08-31T05:01:47.313Z,72.12
2022-08-31T05:04:38.156Z,71.97
2022-08-31T05:07:07.882Z,71.99
2022-08-31T05:09:37.302Z,71.93
2022-08-31T05:12:06.162Z,71.92
2022-08-31T05:14:35.932Z,71.93
2022-08-31T05:17:17.293Z,71.95
2022-08-31T05:19:46.711Z,71.83
2022-08-31T05:22:17.383Z,71.80
2022-08-31T05:24:48.371Z,71.25
2022-08-31T05:27:17.381Z,70.94
2022-08-31T05:29:46.730Z,70.79
2022-08-31T05:32:27.893Z,70.52
2022-08-31T05:35:00.462Z,70.35
2022-08-31T05:37:29.245Z,70.39
2022-08-31T05:39:57.787Z,70.01
2022-08-31T05:42:26.547Z,69.68
2022-08-31T05:44:55.204Z,69.57
2022-08-31T05:47:24.864Z,68.89
2022-08-31T05:49:55.198Z,68.70
2022-08-31T05:52:25.393Z,68.38
2022-08-31T05:54:56.108Z,68.17
2022-08-31T05:57:26.831Z,67.94
2022-08-31T05:59:58.815Z,67.73
2022-08-31T06:02:29.470Z,67.73
2022-08-31T06:05:01.916Z,67.77
2022-08-31T06:07:30.633Z,67.56
2022-08-31T06:10:03.287Z,67.38
2022-08-31T06:12:34.527Z,67.17
2022-08-31T06:15:05.411Z,66.87
2022-08-31T06:17:35.216Z,66.74
2022-08-31T06:20:07.452Z,66.47
2022-08-31T06:22:37.042Z,66.31
2022-08-31T06:25:11.085Z,66.10
2022-08-31T06:27:39.793Z,66.30
2022-08-31T06:30:10.434Z,66.19
2022-08-31T06:32:39.365Z,65.75
2022-08-31T06:35:11.728Z,65.40
2022-08-31T06:38:06.647Z,65.00
2022-08-31T06:41:01.270Z,64.75
2022-08-31T06:43:53.166Z,64.80
2022-08-31T06:46:47.040Z,64.80
2022-08-31T06:49:27.220Z,64.16
2022-08-31T06:52:00.453Z,63.73
2022-08-31T06:54:31.163Z,63.48
2022-08-31T06:57:10.900Z,62.70
2022-08-31T06:59:53.065Z,62.43
2022-08-31T07:02:32.954Z,62.36
2022-08-31T07:05:01.652Z,62.21
2022-08-31T07:07:32.510Z,61.65
2022-08-31T07:10:02.485Z,61.24
2022-08-31T07:12:31.280Z,60.82
2022-08-31T07:15:00.411Z,60.99
2022-08-31T07:17:30.682Z,60.78
2022-08-31T07:19:59.453Z,60.50
2022-08-31T07:22:29.242Z,60.14
2022-08-31T07:25:15.732Z,59.55
2022-08-31T07:27:44.489Z,59.69
2022-08-31T07:30:14.431Z,59.03
2022-08-31T07:32:44.203Z,58.64
2022-08-31T07:35:12.962Z,58.72
2022-08-31T07:38:12.235Z,57.90
2022-08-31T07:40:52.894Z,58.07
2022-08-31T07:43:22.803Z,58.33
2022-08-31T07:45:51.925Z,58.23
2022-08-31T07:48:26.501Z,58.03
2022-08-31T07:51:23.813Z,57.91
2022-08-31T07:54:11.422Z,57.99
2022-08-31T07:56:51.791Z,57.96
2022-08-31T07:59:24.685Z,58.12
2022-08-31T08:01:56.174Z,58.09
2022-08-31T08:04:26.795Z,58.13
2022-08-31T08:07:18.865Z,57.72
2022-08-31T08:10:02.885Z,57.37
2022-08-31T08:13:05.156Z,56.87
2022-08-31T08:15:57.270Z,56.81
2022-08-31T08:18:37.960Z,56.55
2022-08-31T08:21:07.013Z,56.17
2022-08-31T08:23:36.503Z,56.04
2022-08-31T08:26:31.811Z,56.07
2022-08-31T08:29:12.923Z,55.94
2022-08-31T08:31:46.709Z,55.55
2022-08-31T08:34:15.427Z,55.33
2022-08-31T08:36:44.150Z,55.57
2022-08-31T08:39:13.387Z,55.52
2022-08-31T08:41:54.168Z,55.37
2022-08-31T08:44:28.895Z,55.18
2022-08-31T08:47:00.604Z,55.04
2022-08-31T08:49:42.309Z,54.92
2022-08-31T08:52:16.175Z,54.26
2022-08-31T08:54:49.657Z,54.15
2022-08-31T08:57:24.106Z,54.05
2022-08-31T08:59:58.633Z,53.58
2022-08-31T09:02:35.246Z,53.50
2022-08-31T09:05:35.423Z,53.36
2022-08-31T09:08:44.117Z,52.69
2022-08-31T09:11:18.306Z,52.23
2022-08-31T09:13:59.261Z,51.54
2022-08-31T09:16:39.222Z,51.41
2022-08-31T09:19:13.027Z,50.82
2022-08-31T09:21:48.696Z,50.30
2022-08-31T09:24:21.046Z,50.46
2022-08-31T09:27:18.372Z,50.96
2022-08-31T09:29:49.139Z,50.92
2022-08-31T09:32:26.509Z,50.36
2022-08-31T09:34:59.270Z,49.42
2022-08-31T09:37:33.420Z,48.34
2022-08-31T09:40:17.009Z,48.52
2022-08-31T09:43:04.822Z,49.46
2022-08-31T09:45:42.172Z,48.40
2022-08-31T09:48:13.699Z,48.58
2022-08-31T09:50:46.213Z,48.73
2022-08-31T09:53:32.108Z,49.72
2022-08-31T09:56:14.313Z,49.01
2022-08-31T09:58:46.591Z,49.76
2022-08-31T10:01:26.161Z,49.50
2022-08-31T10:04:17.294Z,47.92
2022-08-31T10:06:51.371Z,48.27
2022-08-31T10:09:28.720Z,48.45
2022-08-31T10:12:01.198Z,48.19
2022-08-31T10:14:37.170Z,48.03
2022-08-31T10:17:15.427Z,46.03
2022-08-31T10:19:53.781Z,45.07
2022-08-31T10:22:34.886Z,44.21
2022-08-31T10:25:18.930Z,45.21
2022-08-31T10:27:52.340Z,45.08
2022-08-31T10:30:35.531Z,45.65
2022-08-31T10:33:12.974Z,46.85
2022-08-31T10:35:55.366Z,45.29
2022-08-31T10:38:34.917Z,44.15
2022-08-31T10:41:15.800Z,44.32
2022-08-31T10:43:49.294Z,43.95
2022-08-31T10:46:19.016Z,42.94
2022-08-31T10:48:53.672Z,42.47
2022-08-31T10:51:34.461Z,42.32
2022-08-31T10:54:24.896Z,44.34
2022-08-31T10:57:04.740Z,45.02
2022-08-31T10:59:41.325Z,43.79
2022-08-31T11:02:41.560Z,42.43
2022-08-31T11:05:29.070Z,41.87
2022-08-31T11:08:16.312Z,41.26
2022-08-31T11:10:52.313Z,41.49
2022-08-31T11:13:41.268Z,41.72
2022-08-31T11:16:23.874Z,42.08
2022-08-31T11:19:19.418Z,41.49
2022-08-31T11:22:03.908Z,41.27
2022-08-31T11:25:04.454Z,41.41
2022-08-31T11:27:39.834Z,41.56
2022-08-31T11:30:16.635Z,41.20
2022-08-31T11:32:51.012Z,41.43
2022-08-31T11:35:45.555Z,43.31
2022-08-31T11:38:48.350Z,43.50
2022-08-31T11:41:36.492Z,43.60
2022-08-31T11:44:09.060Z,44.22
2022-08-31T11:47:05.903Z,43.47
2022-08-31T11:49:48.090Z,43.40
2022-08-31T11:52:31.132Z,43.36
2022-08-31T11:55:38.267Z,44.28
2022-08-31T11:58:21.240Z,44.89
2022-08-31T12:00:58.459Z,45.26
2022-08-31T12:03:50.902Z,45.57
2022-08-31T12:06:43.853Z,45.88
2022-08-31T12:09:25.594Z,46.19
2022-08-31T12:12:07.736Z,46.40
2022-08-31T12:14:51.556Z,45.25
2022-08-31T12:17:31.211Z,45.17
2022-08-31T12:20:09.553Z,45.33
2022-08-31T12:23:11.589Z,45.42
2022-08-31T12:25:56.085Z,44.78
2022-08-31T12:28:38.733Z,44.18
2022-08-31T12:31:14.925Z,44.11
2022-08-31T12:33:56.035Z,43.74
2022-08-31T12:36:28.402Z,43.61
2022-08-31T12:39:10.002Z,43.86
2022-08-31T12:41:51.262Z,43.95
2022-08-31T12:44:22.746Z,44.22
2022-08-31T12:47:03.866Z,44.56
2022-08-31T12:49:53.483Z,44.42
2022-08-31T12:52:44.204Z,43.67
2022-08-31T12:55:26.023Z,43.63
2022-08-31T12:58:09.937Z,43.41
2022-08-31T13:00:43.593Z,43.69
2022-08-31T13:03:23.185Z,43.31
2022-08-31T13:06:08.684Z,42.85
2022-08-31T13:08:40.490Z,42.43
2022-08-31T13:11:25.837Z,41.87
2022-08-31T13:14:15.077Z,41.32
2022-08-31T13:16:46.928Z,41.41
2022-08-31T13:19:26.073Z,40.71
2022-08-31T13:21:59.390Z,39.92
2022-08-31T13:24:32.268Z,39.64
2022-08-31T13:27:14.067Z,39.62
2022-08-31T13:29:45.622Z,39.45
2022-08-31T13:32:32.083Z,39.39
2022-08-31T13:35:04.581Z,39.56
2022-08-31T13:37:41.281Z,39.33
2022-08-31T13:40:15.585Z,39.39
2022-08-31T13:42:47.029Z,39.26
2022-08-31T13:45:27.580Z,39.19
2022-08-31T13:47:59.652Z,39.04
2022-08-31T13:50:34.301Z,38.72
2022-08-31T13:53:26.291Z,38.61
2022-08-31T13:55:56.081Z,38.86
2022-08-31T13:58:29.664Z,38.81
2022-08-31T14:01:20.448Z,39.14
2022-08-31T14:03:56.603Z,39.05
2022-08-31T14:06:27.693Z,39.04
2022-08-31T14:09:05.560Z,38.65
2022-08-31T14:11:35.823Z,38.72
2022-08-31T14:14:08.488Z,39.16
2022-08-31T14:16:43.878Z,39.17
2022-08-31T14:19:32.591Z,39.53
2022-08-31T14:22:17.744Z,40.08
2022-08-31T14:24:48.273Z,39.95
2022-08-31T14:27:17.564Z,40.85
2022-08-31T14:29:46.160Z,40.59
2022-08-31T14:32:15.522Z,40.92
2022-08-31T14:34:47.942Z,41.12
2022-08-31T14:37:22.775Z,41.20
2022-08-31T14:39:55.398Z,41.32
2022-08-31T14:42:27.489Z,41.00
2022-08-31T14:45:01.573Z,40.82
2022-08-31T14:47:34.603Z,40.79
2022-08-31T14:50:06.954Z,40.67
2022-08-31T14:52:36.573Z,40.66
2022-08-31T14:55:11.594Z,40.54
2022-08-31T14:57:45.738Z,40.86
2022-08-31T15:00:23.256Z,40.86
2022-08-31T15:02:53.587Z,40.81
2022-08-31T15:05:25.973Z,41.07
2022-08-31T15:07:56.022Z,41.29
2022-08-31T15:10:27.292Z,41.45
2022-08-31T15:12:56.082Z,41.79
2022-08-31T15:15:25.244Z,41.45
2022-08-31T15:17:54.002Z,41.52
2022-08-31T15:20:23.012Z,41.76
2022-08-31T15:22:51.993Z,42.06
2022-08-31T15:25:22.572Z,42.01
2022-08-31T15:27:52.883Z,41.75
2022-08-31T15:30:22.740Z,41.89
2022-08-31T15:32:53.565Z,42.00
2022-08-31T15:35:26.935Z,42.26
2022-08-31T15:37:59.185Z,42.39
2022-08-31T15:40:36.560Z,42.62
2022-08-31T15:43:09.721Z,43.04
2022-08-31T15:45:38.946Z,43.72
2022-08-31T15:48:17.781Z,44.01
2022-08-31T15:50:52.901Z,44.19
2022-08-31T15:53:26.042Z,44.23
2022-08-31T15:55:54.903Z,44.52
2022-08-31T15:58:26.364Z,44.72
2022-08-31T16:00:55.243Z,44.58
2022-08-31T16:03:23.911Z,44.82
2022-08-31T16:05:54.453Z,44.82
2022-08-31T16:08:28.914Z,45.00
2022-08-31T16:10:57.698Z,45.10
2022-08-31T16:13:27.710Z,45.39
2022-08-31T16:15:56.395Z,45.29
2022-08-31T16:18:25.014Z,45.54
2022-08-31T16:20:53.721Z,45.65
2022-08-31T16:23:25.114Z,45.70
2022-08-31T16:25:54.204Z,46.06
2022-08-31T16:28:23.015Z,46.07
2022-08-31T16:30:53.512Z,46.59
2022-08-31T16:33:22.124Z,46.46
2022-08-31T16:35:50.865Z,46.31
2022-08-31T16:38:19.887Z,46.21
2022-08-31T16:40:49.007Z,46.24
2022-08-31T16:43:17.863Z,46.27
2022-08-31T16:45:46.548Z,46.20
2022-08-31T16:48:29.303Z,46.16
2022-08-31T16:51:02.411Z,46.45
2022-08-31T16:53:31.805Z,46.50
2022-08-31T16:56:00.693Z,46.35
2022-08-31T17:01:22.178Z,46.70
2022-08-31T17:03:54.378Z,46.69
2022-08-31T17:06:23.447Z,46.99
2022-08-31T17:08:55.530Z,46.99
2022-08-31T17:11:26.786Z,47.05
2022-08-31T17:13:58.478Z,47.36
2022-08-31T17:16:30.140Z,47.46
2022-08-31T17:19:00.517Z,47.47
2022-08-31T17:21:32.189Z,47.60
2022-08-31T17:24:02.580Z,47.64
2022-08-31T17:26:33.970Z,47.92
2022-08-31T17:29:05.297Z,48.02
2022-08-31T17:31:36.787Z,48.24
2022-08-31T17:34:06.923Z,48.61
2022-08-31T17:36:37.725Z,48.56
2022-08-31T17:39:07.598Z,48.71
2022-08-31T17:41:36.597Z,49.10
2022-08-31T17:44:06.052Z,49.37
2022-08-31T17:46:35.355Z,49.51
2022-08-31T17:49:04.495Z,49.61
2022-08-31T17:51:36.081Z,49.69
2022-08-31T17:54:08.040Z,50.04
2022-08-31T17:56:47.615Z,50.19
2022-08-31T17:59:19.580Z,50.48
2022-08-31T18:01:50.748Z,50.57
2022-08-31T18:04:20.224Z,51.10
2022-08-31T18:06:53.607Z,51.25
2022-08-31T18:09:27.798Z,51.41
2022-08-31T18:11:56.867Z,51.53
2022-08-31T18:14:28.856Z,51.65
2022-08-31T18:16:59.790Z,52.09
2022-08-31T18:19:31.728Z,52.08
2022-08-31T18:22:02.865Z,51.88
2022-08-31T18:24:35.704Z,52.19
2022-08-31T18:27:07.336Z,52.27
2022-08-31T18:29:37.206Z,52.33
2022-08-31T18:32:08.308Z,52.26
2022-08-31T18:34:40.266Z,52.22
2022-08-31T18:37:11.020Z,52.43
2022-08-31T18:39:53.897Z,52.32
2022-08-31T18:42:32.593Z,51.98
2022-08-31T18:45:11.038Z,52.13
2022-08-31T18:47:39.694Z,52.11
2022-08-31T18:50:09.009Z,52.10
2022-08-31T18:52:44.113Z,52.35
2022-08-31T18:55:16.993Z,52.38
2022-08-31T18:57:46.412Z,52.45
2022-08-31T19:00:18.609Z,52.51
2022-08-31T19:02:47.625Z,52.41
2022-08-31T19:05:17.060Z,52.34
2022-08-31T19:07:47.054Z,52.41
2022-08-31T19:10:16.172Z,52.36
2022-08-31T19:12:46.100Z,52.16
2022-08-31T19:15:15.483Z,52.41
2022-08-31T19:17:49.634Z,52.57
2022-08-31T19:20:18.734Z,52.63
2022-08-31T19:22:48.906Z,52.73
2022-08-31T19:25:18.405Z,52.72
2022-08-31T19:27:52.182Z,52.76
2022-08-31T19:30:27.229Z,52.87
2022-08-31T19:32:57.422Z,52.98
2022-08-31T19:35:27.384Z,52.94
2022-08-31T19:37:57.863Z,53.11
2022-08-31T19:40:43.498Z,53.29
2022-08-31T19:46:16.442Z,53.36
2022-08-31T19:48:46.107Z,53.40
2022-08-31T19:51:17.161Z,53.31
2022-08-31T19:53:49.724Z,53.55
2022-08-31T19:56:21.396Z,53.34
2022-08-31T19:58:52.213Z,53.30
2022-08-31T20:01:34.265Z,53.30
2022-08-31T20:04:07.695Z,53.47
2022-08-31T20:06:37.373Z,53.68
2022-08-31T20:09:10.787Z,53.51
2022-08-31T20:11:40.864Z,53.74
2022-08-31T20:14:09.168Z,53.78
2022-08-31T20:16:42.051Z,53.77
2022-08-31T20:19:14.394Z,53.56
2022-08-31T20:21:44.997Z,53.78
2022-08-31T20:24:15.844Z,53.77
2022-08-31T20:26:51.985Z,53.85
2022-08-31T20:29:21.723Z,53.83
2022-08-31T20:31:55.483Z,53.75
2022-08-31T20:34:28.226Z,53.56
2022-08-31T20:37:01.098Z,53.68
2022-08-31T20:39:35.515Z,54.14
2022-08-31T20:42:06.475Z,54.14
2022-08-31T20:44:38.187Z,53.85
2022-08-31T20:47:18.205Z,53.91
2022-08-31T20:49:51.657Z,54.06
2022-08-31T20:52:20.776Z,54.12
2022-08-31T20:54:54.354Z,54.32
2022-08-31T20:57:32.134Z,54.10
2022-08-31T21:00:04.888Z,53.98
2022-08-31T21:02:35.042Z,54.23
2022-08-31T21:07:57.669Z,54.35
2022-08-31T21:10:37.190Z,54.18
2022-08-31T21:13:11.481Z,54.33
2022-08-31T21:15:45.579Z,54.81
2022-08-31T21:18:17.858Z,54.60
2022-08-31T21:20:47.071Z,54.29
2022-08-31T21:23:15.976Z,54.45
2022-08-31T21:25:47.511Z,54.58
2022-08-31T21:28:18.460Z,54.63
2022-08-31T21:30:50.801Z,54.77
2022-08-31T21:33:19.780Z,54.75
2022-08-31T21:35:49.019Z,54.94
2022-08-31T21:38:18.511Z,55.15
2022-08-31T21:40:51.993Z,55.08
2022-08-31T21:43:21.254Z,55.40
2022-08-31T21:45:54.965Z,55.22
2022-08-31T21:48:26.269Z,55.40
2022-08-31T21:50:55.895Z,55.59
2022-08-31T21:53:27.804Z,55.99
2022-08-31T21:55:57.903Z,56.23
2022-08-31T21:58:27.175Z,56.28
2022-08-31T22:00:56.332Z,56.60
2022-08-31T22:03:24.893Z,56.57
2022-08-31T22:05:54.453Z,56.63
2022-08-31T22:08:24.494Z,57.07
2022-08-31T22:10:53.163Z,56.87
2022-08-31T22:13:23.224Z,56.83
2022-08-31T22:15:52.182Z,57.10
2022-08-31T22:19:00.391Z,57.03
2022-08-31T22:21:09.476Z,57.03
2022-08-31T22:23:38.237Z,57.29
2022-08-31T22:26:07.041Z,57.29
2022-08-31T22:28:37.674Z,57.37
2022-08-31T22:31:07.837Z,57.45
2022-08-31T22:33:38.045Z,57.58
2022-08-31T22:36:25.795Z,57.48
2022-08-31T22:39:03.843Z,57.61
2022-08-31T22:41:33.190Z,57.81
2022-08-31T22:44:03.152Z,57.79
2022-08-31T22:46:31.734Z,57.95
2022-08-31T22:49:00.682Z,58.06
2022-08-31T22:51:29.364Z,58.16
2022-08-31T22:53:58.318Z,58.27
2022-08-31T22:56:30.555Z,58.22
2022-08-31T22:59:01.272Z,58.82
2022-08-31T23:01:34.216Z,58.67
2022-08-31T23:04:06.225Z,58.79
2022-08-31T23:06:36.561Z,58.35
2022-08-31T23:09:07.856Z,58.26
2022-08-31T23:11:37.023Z,58.91
2022-08-31T23:14:07.580Z,58.36
2022-08-31T23:16:41.352Z,58.42
2022-08-31T23:19:14.384Z,58.61
2022-08-31T23:21:46.133Z,59.19
2022-08-31T23:24:24.875Z,59.07
2022-08-31T23:26:54.005Z,59.83
2022-08-31T23:29:22.606Z,59.40
2022-08-31T23:31:53.154Z,58.70
2022-08-31T23:34:23.081Z,58.84
2022-08-31T23:36:53.558Z,59.17
2022-08-31T23:39:26.821Z,58.80
2022-08-31T23:41:55.624Z,58.77
2022-08-31T23:44:24.813Z,59.31
2022-08-31T23:46:55.153Z,59.81
2022-08-31T23:49:24.026Z,59.92
2022-08-31T23:51:52.614Z,60.15
2022-08-31T23:54:23.573Z,60.47
2022-08-31T23:56:52.442Z,59.94
2022-08-31T23:59:21.721Z,60.57
